TimeCST,TemperatureF,Dew PointF,Humidity,Sea Level PressureIn,VisibilityMPH,Wind Direction,Wind SpeedMPH,Gust SpeedMPH,PrecipitationIn,Events,Conditions,WindDirDegrees,DateUTC
6:00 AM,76,69,72,29.81,12,East,3.5,,,,Overcast,80,2013-04-12 12:00:00
6:00 AM,75.2,68.0,78,29.79,-9999.0,East,3.5,-,N/A,,Clear,80,2013-04-12 12:00:00
7:00 AM,80.6,69.8,70,29.82,-9999.0,East,3.5,-,N/A,,Clear,100,2013-04-12 13:00:00
8:00 AM,84.2,69.8,62,29.84,6.2,WSW,3.5,-,N/A,,Overcast,250,2013-04-12 14:00:00
9:00 AM,88,69,44,29.86,12,NE,3.5,,,,Overcast,40,2013-04-12 15:00:00
9:00 AM,87.8,69.8,55,29.84,6.2,NE,3.5,-,N/A,,Mostly Cloudy,40,2013-04-12 15:00:00
10:00 AM,91.4,66.2,43,29.82,6.2,North,4.6,-,N/A,,Mostly Cloudy,360,2013-04-12 16:00:00
11:00 AM,93.2,64.4,38,29.80,6.2,NE,8.1,-,N/A,,Mostly Cloudy,50,2013-04-12 17:00:00
12:00 PM,96,62,23,29.78,12,North,5.8,,,,Overcast,10,2013-04-12 18:00:00
12:00 PM,96.8,62.6,32,29.77,6.2,North,5.8,-,N/A,,Mostly Cloudy,10,2013-04-12 18:00:00
1:00 PM,95.0,64.4,36,29.73,6.2,NW,6.9,-,N/A,,Scattered Clouds,310,2013-04-12 19:00:00
2:00 PM,96.8,60.8,30,29.71,6.2,ESE,6.9,-,N/A,,Scattered Clouds,120,2013-04-12 20:00:00
3:00 PM,97,62,22,29.70,12,East,4.6,,,,Overcast,80,2013-04-12 21:00:00
3:00 PM,96.8,60.8,30,29.68,6.2,East,4.6,-,N/A,,Scattered Clouds,80,2013-04-12 21:00:00
4:00 PM,95.0,62.6,34,29.67,6.2,ESE,11.5,-,N/A,,Scattered Clouds,110,2013-04-12 22:00:00
5:00 PM,93.2,60.8,34,29.68,6.2,ENE,11.5,-,N/A,,Scattered Clouds,60,2013-04-12 23:00:00
6:00 PM,90,64,32,29.71,12,ENE,11.5,,,,Clear,70,2013-04-13 00:00:00
6:00 PM,89.6,64.4,43,29.69,-9999.0,ENE,11.5,-,N/A,,Clear,70,2013-04-13 00:00:00
7:00 PM,86.0,66.2,51,29.72,-9999.0,ENE,9.2,-,N/A,,Clear,60,2013-04-13 01:00:00
8:00 PM,84.2,66.2,55,29.75,-9999.0,ESE,3.5,-,N/A,,Clear,120,2013-04-13 02:00:00